Time;durP1;ratioP1;P1;durP2;ratioP2;P2;SDS_P1;SDS_P2;PMS_P1;PMS_P2;Temp;Humidity;BMP_temperature;BMP_pressure;BME280_temperature;BME280_humidity;BME280_pressure;Samples;Min_cycle;Max_cycle;Signal;HPM_P1;HPM_P2
2022/06/15 00:02:23;;;;;;;5.28;3.50;;;18.50;1.00;;;;;;7378331;19;20021;-62
2022/06/15 00:04:53;;;;;;;7.03;3.22;;;18.50;1.00;;;;;;7364697;19;20014;-62
2022/06/15 00:07:23;;;;;;;5.93;3.92;;;18.50;1.00;;;;;;7364875;19;20027;-61
2022/06/15 00:09:56;;;;;;;4.38;3.13;;;18.30;1.00;;;;;;7362121;19;20094;-62
2022/06/15 00:12:25;;;;;;;7.65;3.58;;;18.30;1.00;;;;;;7358113;19;20396;-61
2022/06/15 00:14:55;;;;;;;5.75;3.60;;;18.30;1.00;;;;;;7365448;19;20074;-62
2022/06/15 00:17:25;;;;;;;5.38;3.33;;;18.40;1.00;;;;;;7383375;19;20014;-63
2022/06/15 00:19:55;;;;;;;5.25;3.55;;;18.40;1.00;;;;;;7363377;19;20015;-63
2022/06/15 00:22:25;;;;;;;5.25;3.40;;;18.50;1.00;;;;;;7356455;19;20017;-62
2022/06/15 00:24:57;;;;;;;6.30;3.30;;;18.40;1.00;;;;;;7365118;19;20165;-62
2022/06/15 00:27:27;;;;;;;5.95;2.95;;;18.40;1.00;;;;;;7362219;19;20087;-62
2022/06/15 00:29:57;;;;;;;5.05;3.20;;;18.40;1.00;;;;;;7364905;19;20094;-62
2022/06/15 00:32:27;;;;;;;4.45;3.17;;;18.40;1.00;;;;;;7379666;19;20022;-61
2022/06/15 00:34:57;;;;;;;3.90;3.28;;;18.30;1.00;;;;;;7364770;19;20023;-61
2022/06/15 00:37:27;;;;;;;5.30;3.50;;;18.40;1.00;;;;;;7362957;19;20520;-62
2022/06/15 00:39:59;;;;;;;5.40;3.58;;;18.20;1.00;;;;;;7361495;19;20018;-62
2022/06/15 00:42:31;;;;;;;5.43;3.72;;;18.20;1.00;;;;;;7355738;19;20014;-62
2022/06/15 00:45:01;;;;;;;5.03;3.10;;;18.10;1.00;;;;;;7364827;19;20074;-62
2022/06/15 00:47:35;;;;;;;7.00;3.67;;;18.10;1.00;;;;;;7383206;19;20035;-63
2022/06/15 00:50:10;;;;;;;4.72;3.10;;;18.10;1.00;;;;;;7391768;19;20029;-63
2022/06/15 00:52:45;;;;;;;6.20;3.33;;;18.10;1.00;;;;;;7365521;19;20451;-63
2022/06/15 00:55:21;;;;;;;5.22;3.40;;;18.10;1.00;;;;;;7368123;19;20450;-62
2022/06/15 00:57:52;;;;;;;6.70;3.25;;;18.10;1.00;;;;;;7369221;19;20481;-62
2022/06/15 01:00:23;;;;;;;7.68;3.53;;;18.00;1.00;;;;;;7367550;19;20510;-62
2022/06/15 01:02:53;;;;;;;8.82;3.55;;;18.00;1.00;;;;;;7363513;19;20018;-61
2022/06/15 01:05:27;;;;;;;5.22;3.60;;;17.90;1.00;;;;;;7389834;19;20475;-62
2022/06/15 01:08:17;;;;;;;7.28;3.03;;;17.90;1.00;;;;;;7369565;19;20011;-61
2022/06/15 01:11:19;;;;;;;4.35;3.70;;;17.80;1.00;;;;;;7364410;19;20090;-62
2022/06/15 01:14:12;;;;;;;7.38;3.53;;;17.70;1.00;;;;;;7368143;19;20006;-62
2022/06/15 01:16:47;;;;;;;6.20;4.00;;;17.60;1.00;;;;;;7366540;19;20021;-61
2022/06/15 01:19:43;;;;;;;4.57;3.42;;;17.50;1.00;;;;;;7368126;19;20086;-62
2022/06/15 01:22:30;;;;;;;7.97;3.63;;;17.40;1.00;;;;;;7361351;19;20389;-62
2022/06/15 01:25:20;;;;;;;5.60;3.85;;;17.30;1.00;;;;;;7369051;19;20022;-62
2022/06/15 01:28:29;;;;;;;5.50;3.47;;;17.30;1.00;;;;;;7368555;19;20074;-62
2022/06/15 01:31:08;;;;;;;5.80;3.42;;;17.10;1.00;;;;;;7362277;19;20007;-62
2022/06/15 01:33:45;;;;;;;6.63;3.97;;;17.00;1.00;;;;;;7368793;19;20067;-62
2022/06/15 01:36:23;;;;;;;5.47;3.85;;;16.80;1.00;;;;;;7368213;19;20082;-62
2022/06/15 01:39:00;;;;;;;5.32;4.03;;;16.80;1.00;;;;;;7370189;19;20004;-62
2022/06/15 01:41:36;;;;;;;6.28;3.65;;;16.70;1.00;;;;;;7384604;19;20352;-61
2022/06/15 01:44:11;;;;;;;5.80;3.60;;;16.70;1.00;;;;;;7369136;19;20350;-61
2022/06/15 01:46:47;;;;;;;5.43;4.22;;;16.60;1.00;;;;;;7366908;19;20513;-63
2022/06/15 01:49:23;;;;;;;6.43;3.60;;;16.60;1.00;;;;;;7370167;19;20451;-61
2022/06/15 01:51:54;;;;;;;4.72;3.78;;;16.60;1.00;;;;;;7362944;19;20078;-61
2022/06/15 01:54:28;;;;;;;5.82;3.90;;;16.60;1.00;;;;;;7369027;19;20502;-60
2022/06/15 01:56:59;;;;;;;7.45;3.90;;;16.50;1.00;;;;;;7364759;19;20019;-61
2022/06/15 01:59:33;;;;;;;7.22;3.80;;;16.70;1.00;;;;;;7391500;19;20010;-61
2022/06/15 02:02:15;;;;;;;4.85;3.53;;;16.90;1.00;;;;;;7360822;19;20031;-62
2022/06/15 02:04:54;;;;;;;6.75;3.67;;;17.00;1.00;;;;;;7368747;19;20018;-62
2022/06/15 02:07:33;;;;;;;5.85;3.88;;;16.90;1.00;;;;;;7366834;19;19998;-62
2022/06/15 02:10:08;;;;;;;5.75;3.80;;;16.80;1.00;;;;;;7368942;19;20007;-62
2022/06/15 02:12:40;;;;;;;;;;;16.80;1.00;;;;;;7364337;19;20013;-61
2022/06/15 02:15:14;;;;;;;5.05;3.60;;;16.80;1.00;;;;;;7367679;19;19990;-63
2022/06/15 02:17:49;;;;;;;6.43;3.75;;;16.80;1.00;;;;;;7369147;19;20021;-62
2022/06/15 02:20:23;;;;;;;6.45;4.10;;;16.90;1.00;;;;;;7388281;19;20014;-62
2022/06/15 02:22:56;;;;;;;6.38;4.25;;;16.90;1.00;;;;;;7362404;19;20025;-62
2022/06/15 02:25:29;;;;;;;5.95;3.80;;;17.00;1.00;;;;;;7367936;19;20011;-62
2022/06/15 02:27:59;;;;;;;7.32;3.97;;;16.90;1.00;;;;;;7368309;19;20078;-62
2022/06/15 02:30:31;;;;;;;7.68;4.10;;;16.70;1.00;;;;;;7365043;19;20093;-62
2022/06/15 02:33:13;;;;;;;6.88;3.67;;;16.50;1.00;;;;;;7361960;19;20014;-61
2022/06/15 02:35:43;;;;;;;6.18;3.95;;;16.60;1.00;;;;;;7366974;19;20052;-61
2022/06/15 02:38:13;;;;;;;6.10;4.00;;;16.70;1.00;;;;;;7389480;19;20074;-61
2022/06/15 02:40:43;;;;;;;8.18;4.57;;;16.60;1.00;;;;;;7365167;19;20062;-61
2022/06/15 02:43:14;;;;;;;5.53;3.88;;;16.60;1.00;;;;;;7363082;19;20010;-61
2022/06/15 02:45:47;;;;;;;6.10;4.13;;;16.50;1.00;;;;;;7366883;19;20006;-62
2022/06/15 02:48:20;;;;;;;7.72;4.72;;;16.40;1.00;;;;;;7367891;19;20028;-62
2022/06/15 02:50:54;;;;;;;8.48;5.20;;;16.30;1.00;;;;;;7364128;19;20026;-61
2022/06/15 02:53:28;;;;;;;9.50;5.05;;;16.20;1.00;;;;;;7387475;19;20039;-62
2022/06/15 02:55:59;;;;;;;10.07;5.18;;;16.20;1.00;;;;;;7365643;19;20400;-61
2022/06/15 02:58:32;;;;;;;7.63;4.85;;;16.10;1.00;;;;;;7366874;19;20081;-61
2022/06/15 03:01:03;;;;;;;8.77;4.75;;;16.10;1.00;;;;;;7361034;19;20471;-62
2022/06/15 03:03:36;;;;;;;10.05;5.35;;;16.00;1.00;;;;;;7365306;19;20026;-61
2022/06/15 03:06:10;;;;;;;7.60;4.60;;;16.00;1.00;;;;;;7365783;19;20010;-62
2022/06/15 03:08:40;;;;;;;9.05;4.60;;;16.00;1.00;;;;;;7365988;19;20021;-62
2022/06/15 03:11:11;;;;;;;6.15;4.47;;;15.90;1.00;;;;;;7383660;19;20020;-62
2022/06/15 03:13:41;;;;;;;6.97;4.22;;;15.90;1.00;;;;;;7365317;19;20011;-62
2022/06/15 03:16:11;;;;;;;6.43;4.60;;;15.90;1.00;;;;;;7364514;19;20010;-62
2022/06/15 03:18:44;;;;;;;10.13;4.65;;;16.00;1.00;;;;;;7366856;19;20074;-62
2022/06/15 03:21:15;;;;;;;8.38;5.00;;;16.00;1.00;;;;;;7360397;19;20027;-63
2022/06/15 03:23:44;;;;;;;7.45;4.13;;;16.00;1.00;;;;;;7364401;19;20319;-62
2022/06/15 03:26:14;;;;;;;5.68;4.07;;;16.00;1.00;;;;;;7386786;19;20023;-62
2022/06/15 03:28:44;;;;;;;7.45;4.35;;;16.00;1.00;;;;;;7363751;19;20007;-61
2022/06/15 03:31:14;;;;;;;7.00;3.97;;;16.10;1.00;;;;;;7360724;19;20017;-61
2022/06/15 03:33:47;;;;;;;7.45;4.20;;;16.20;1.00;;;;;;7365363;19;20007;-62
2022/06/15 03:36:17;;;;;;;7.00;4.13;;;16.20;1.00;;;;;;7365356;19;20069;-61
2022/06/15 03:38:47;;;;;;;9.80;4.03;;;16.10;1.00;;;;;;7366785;19;20018;-61
2022/06/15 03:41:18;;;;;;;6.88;4.60;;;16.20;1.00;;;;;;7382249;19;20610;-61
2022/06/15 03:43:49;;;;;;;6.38;4.00;;;17.30;1.00;;;;;;7362440;19;20032;-62
2022/06/15 03:46:19;;;;;;;6.85;4.40;;;18.10;1.00;;;;;;7364372;19;20032;-62
2022/06/15 03:48:51;;;;;;;6.40;4.90;;;18.60;1.00;;;;;;7366431;19;20002;-61
2022/06/15 03:51:21;;;;;;;8.68;4.75;;;19.10;1.00;;;;;;7360756;19;20651;-62
2022/06/15 03:53:51;;;;;;;5.32;4.10;;;19.90;1.00;;;;;;7363491;19;20024;-62
2022/06/15 03:56:21;;;;;;;7.60;4.68;;;19.50;1.00;;;;;;7384298;19;20014;-62
2022/06/15 03:58:51;;;;;;;6.07;5.03;;;20.00;1.00;;;;;;7364549;19;20081;-63
2022/06/15 04:01:21;;;;;;;6.80;4.30;;;19.70;1.00;;;;;;7360625;19;20020;-62
2022/06/15 04:03:53;;;;;;;7.90;4.70;;;20.60;1.00;;;;;;7363892;19;20006;-62
2022/06/15 04:06:23;;;;;;;7.22;4.75;;;20.60;1.00;;;;;;7363996;19;20085;-62
2022/06/15 04:08:52;;;;;;;9.32;4.45;;;21.20;1.00;;;;;;7365194;19;20043;-63
2022/06/15 04:14:05;;;;;;;9.25;4.80;;;21.40;1.00;;;;;;7363353;19;20026;-63
2022/06/15 04:16:36;;;;;;;7.05;4.80;;;21.60;1.00;;;;;;7363343;19;20060;-62
2022/06/15 04:19:11;;;;;;;8.02;4.53;;;21.40;1.00;;;;;;7364800;19;20082;-62
2022/06/15 04:21:45;;;;;;;7.65;4.40;;;21.50;1.00;;;;;;7364678;19;20351;-62
2022/06/15 04:24:15;;;;;;;6.15;4.50;;;20.80;1.00;;;;;;7367707;19;20458;-62
2022/06/15 04:26:47;;;;;;;8.07;4.82;;;22.20;1.00;;;;;;7369225;19;20010;-62
2022/06/15 04:29:17;;;;;;;9.40;5.53;;;22.40;1.00;;;;;;7393491;19;20092;-63
2022/06/15 04:31:47;;;;;;;10.00;4.75;;;22.50;1.00;;;;;;7364684;19;20007;-62
2022/06/15 04:34:20;;;;;;;6.85;4.50;;;23.60;1.00;;;;;;7370316;19;20356;-62
2022/06/15 04:36:50;;;;;;;6.45;4.30;;;23.10;1.00;;;;;;7370459;19;20502;-62
2022/06/15 04:39:20;;;;;;;7.28;4.43;;;23.20;1.00;;;;;;7371246;19;20081;-62
2022/06/15 04:41:50;;;;;;;5.60;4.05;;;23.80;1.00;;;;;;7364918;19;20085;-62
2022/06/15 04:44:20;;;;;;;7.00;4.15;;;24.40;1.00;;;;;;7389764;19;20014;-62
2022/06/15 04:46:50;;;;;;;7.43;4.38;;;23.60;1.00;;;;;;7369206;19;20017;-62
2022/06/15 04:49:22;;;;;;;5.65;4.18;;;23.60;1.00;;;;;;7371233;19;20015;-62
2022/06/15 04:51:52;;;;;;;6.45;4.10;;;23.80;1.00;;;;;;7363296;19;20510;-61
2022/06/15 04:54:22;;;;;;;5.00;4.30;;;23.90;1.00;;;;;;7369955;19;20495;-61
2022/06/15 04:56:52;;;;;;;9.68;4.22;;;23.70;1.00;;;;;;7369007;19;20027;-61
2022/06/15 04:59:22;;;;;;;5.72;4.47;;;23.80;1.00;;;;;;7391976;19;20014;-62
2022/06/15 05:01:51;;;;;;;7.75;4.75;;;23.30;1.00;;;;;;7364559;19;20451;-62
2022/06/15 05:04:25;;;;;;;5.88;4.80;;;23.80;1.00;;;;;;7367092;19;20006;-62
2022/06/15 05:06:55;;;;;;;6.82;4.63;;;24.00;1.00;;;;;;7369297;19;20020;-62
2022/06/15 05:09:25;;;;;;;8.95;5.47;;;23.90;1.00;;;;;;7370038;19;20044;-61
2022/06/15 05:11:55;;;;;;;6.90;4.70;;;23.50;1.00;;;;;;7362967;19;20107;-61
2022/06/15 05:14:25;;;;;;;6.47;4.68;;;23.50;1.00;;;;;;7390688;19;20026;-61
2022/06/15 05:16:55;;;;;;;6.57;4.63;;;24.20;1.00;;;;;;7368507;19;20017;-62
2022/06/15 05:19:27;;;;;;;5.45;4.18;;;24.60;1.00;;;;;;7369373;19;20017;-61
2022/06/15 05:21:58;;;;;;;7.70;4.65;;;24.90;1.00;;;;;;7360583;19;20011;-62
2022/06/15 05:24:28;;;;;;;6.20;4.43;;;25.30;1.00;;;;;;7367302;19;20006;-62
2022/06/15 05:26:58;;;;;;;6.85;4.18;;;24.80;1.00;;;;;;7368017;19;20010;-62
2022/06/15 05:29:28;;;;;;;8.15;3.80;;;25.80;1.00;;;;;;7391877;19;20007;-62
2022/06/15 05:31:58;;;;;;;7.38;3.60;;;25.50;1.00;;;;;;7362237;19;20480;-63
2022/06/15 05:34:30;;;;;;;5.75;4.03;;;24.60;1.00;;;;;;7367221;19;20055;-62
2022/06/15 05:37:00;;;;;;;7.90;4.03;;;24.70;1.00;;;;;;7367800;19;20003;-63
2022/06/15 05:39:30;;;;;;;6.10;4.05;;;24.20;1.00;;;;;;7368961;19;20014;-62
2022/06/15 05:42:00;;;;;;;8.02;3.72;;;24.60;1.00;;;;;;7360906;19;20014;-62
2022/06/15 05:44:34;;;;;;;6.88;3.72;;;24.80;1.00;;;;;;7388312;19;20018;-62
2022/06/15 05:47:05;;;;;;;6.00;3.75;;;25.30;1.00;;;;;;7366844;19;20367;-62
2022/06/15 05:49:38;;;;;;;6.40;3.90;;;25.00;1.00;;;;;;7367747;19;20078;-62
2022/06/15 05:52:08;;;;;;;7.50;3.70;;;25.00;1.00;;;;;;7359917;19;20425;-63
2022/06/15 05:54:38;;;;;;;5.20;3.95;;;25.20;1.00;;;;;;7368250;19;20027;-62
2022/06/15 05:57:15;;;;;;;6.80;4.28;;;24.50;1.00;;;;;;7366638;19;20020;-62
2022/06/15 05:59:47;;;;;;;7.47;4.18;;;25.10;1.00;;;;;;7368084;19;20032;-62
2022/06/15 06:02:18;;;;;;;6.88;4.15;;;23.80;1.00;;;;;;7381707;19;20078;-62
2022/06/15 06:04:53;;;;;;;6.93;4.43;;;23.00;1.00;;;;;;7365953;19;20471;-61
2022/06/15 06:07:23;;;;;;;;;;;22.10;1.00;;;;;;7367295;19;20449;-62
2022/06/15 06:09:53;;;;;;;7.55;3.55;;;21.60;1.00;;;;;;7368723;19;19915;-61
2022/06/15 06:12:23;;;;;;;6.43;3.83;;;21.30;1.00;;;;;;7360708;19;20014;-61
2022/06/15 06:14:53;;;;;;;6.35;3.70;;;21.50;1.00;;;;;;7369015;19;20026;-62
2022/06/15 06:17:23;;;;;;;9.57;3.80;;;21.70;1.00;;;;;;7386405;19;20011;-62
2022/06/15 06:19:56;;;;;;;7.00;3.60;;;22.00;1.00;;;;;;7366548;19;20074;-63
2022/06/15 06:22:25;;;;;;;7.30;3.72;;;22.10;1.00;;;;;;7358701;19;20086;-62
2022/06/15 06:24:55;;;;;;;4.78;4.00;;;21.80;1.00;;;;;;7367083;19;20010;-63
2022/06/15 06:27:25;;;;;;;6.93;3.75;;;22.10;1.00;;;;;;7365285;19;20025;-62
2022/06/15 06:30:00;;;;;;;6.53;4.00;;;21.80;1.00;;;;;;7368264;19;20023;-62
2022/06/15 06:32:30;;;;;;;8.05;4.20;;;22.20;1.00;;;;;;7380628;19;20007;-62
2022/06/15 06:35:07;;;;;;;6.40;4.03;;;22.30;1.00;;;;;;7365990;19;20074;-63
2022/06/15 06:37:40;;;;;;;10.38;4.20;;;22.60;1.00;;;;;;7364702;19;20010;-62
2022/06/15 06:40:15;;;;;;;6.15;3.60;;;23.80;1.00;;;;;;7366665;19;20003;-62
2022/06/15 06:42:45;;;;;;;5.65;3.30;;;24.00;1.00;;;;;;7358601;19;20010;-61
2022/06/15 06:45:15;;;;;;;5.68;3.67;;;23.20;1.00;;;;;;7367009;19;20085;-62
2022/06/15 06:47:45;;;;;;;6.45;3.70;;;23.10;1.00;;;;;;7366003;19;20037;-62
2022/06/15 06:50:25;;;;;;;6.07;3.10;;;22.80;1.00;;;;;;7386034;19;20055;-61
2022/06/15 06:52:55;;;;;;;9.32;3.90;;;23.20;1.00;;;;;;7360429;19;20018;-62
2022/06/15 06:55:28;;;;;;;7.38;3.25;;;22.90;1.00;;;;;;7367154;19;20271;-62
2022/06/15 06:57:58;;;;;;;6.32;3.60;;;23.00;1.00;;;;;;7367218;19;20018;-61
2022/06/15 07:00:29;;;;;;;6.55;3.55;;;23.00;1.00;;;;;;7364551;19;20466;-61
2022/06/15 07:03:01;;;;;;;4.50;3.28;;;22.90;1.00;;;;;;7360997;19;20013;-63
2022/06/15 07:05:35;;;;;;;4.80;3.55;;;23.20;1.00;;;;;;7386074;19;20026;-61
2022/06/15 07:08:06;;;;;;;4.95;3.20;;;23.50;1.00;;;;;;7367255;19;20079;-62
2022/06/15 07:10:36;;;;;;;8.02;3.88;;;23.00;1.00;;;;;;7363928;19;20384;-63
2022/06/15 07:13:06;;;;;;;8.45;3.63;;;22.90;1.00;;;;;;7358922;19;20035;-61
2022/06/15 07:15:37;;;;;;;7.63;3.58;;;23.10;1.00;;;;;;7364849;19;20007;-62
2022/06/15 07:18:07;;;;;;;5.05;3.00;;;23.20;1.00;;;;;;7366069;19;20039;-62
2022/06/15 07:20:40;;;;;;;5.97;3.40;;;23.40;1.00;;;;;;7362712;19;20019;-63
2022/06/15 07:23:09;;;;;;;7.47;3.03;;;23.40;1.00;;;;;;7380577;19;20447;-63
2022/06/15 07:25:39;;;;;;;5.60;3.40;;;23.60;1.00;;;;;;7362122;19;20021;-63
2022/06/15 07:28:10;;;;;;;4.55;3.00;;;23.70;1.00;;;;;;7366652;19;20080;-62
2022/06/15 07:30:40;;;;;;;7.50;3.30;;;23.40;1.00;;;;;;7363928;19;20082;-63
2022/06/15 07:33:10;;;;;;;4.82;3.22;;;23.90;1.00;;;;;;7359653;19;20105;-62
2022/06/15 07:35:42;;;;;;;4.88;3.22;;;23.20;1.00;;;;;;7363938;19;20014;-62
2022/06/15 07:38:12;;;;;;;7.13;3.70;;;23.40;1.00;;;;;;7387128;19;20010;-63
2022/06/15 07:40:59;;;;;;;5.25;3.03;;;23.60;1.00;;;;;;7362052;19;20078;-63
2022/06/15 07:43:29;;;;;;;3.95;2.70;;;24.00;1.00;;;;;;7361940;19;20058;-62
2022/06/15 07:45:59;;;;;;;6.38;3.47;;;24.20;1.00;;;;;;7364022;19;20581;-62
2022/06/15 07:51:26;;;;;;;5.63;3.42;;;24.30;1.00;;;;;;7359745;19;20018;-62
2022/06/15 07:53:56;;;;;;;5.15;3.08;;;24.30;1.00;;;;;;7364397;19;20046;-63
2022/06/15 07:56:27;;;;;;;5.28;3.00;;;24.30;1.00;;;;;;7392077;19;20074;-63
2022/06/15 07:58:58;;;;;;;4.80;3.10;;;24.50;1.00;;;;;;7371997;19;20385;-63
2022/06/15 08:01:28;;;;;;;5.70;3.25;;;24.40;1.00;;;;;;7364101;19;20075;-62
2022/06/15 08:03:58;;;;;;;7.63;3.70;;;24.10;1.00;;;;;;7371422;19;20467;-63
2022/06/15 08:06:32;;;;;;;9.25;3.25;;;24.70;1.00;;;;;;7369272;19;20006;-63
2022/06/15 08:09:09;;;;;;;6.78;3.42;;;24.50;1.00;;;;;;7371538;19;20007;-64
2022/06/15 08:11:39;;;;;;;5.18;2.83;;;24.80;1.00;;;;;;7363972;19;20032;-62
2022/06/15 08:14:09;;;;;;;6.95;3.20;;;25.20;1.00;;;;;;7392023;19;20028;-62
2022/06/15 08:16:39;;;;;;;4.82;3.20;;;25.30;1.00;;;;;;7369067;19;20006;-62
2022/06/15 08:19:09;;;;;;;4.00;2.70;;;24.90;1.00;;;;;;7371039;19;20479;-62
2022/06/15 08:21:41;;;;;;;8.75;3.38;;;25.10;1.00;;;;;;7364315;19;20014;-62
2022/06/15 08:24:11;;;;;;;10.23;3.80;;;24.80;1.00;;;;;;7370244;19;20024;-62
2022/06/15 08:26:43;;;;;;;7.47;3.35;;;24.70;1.00;;;;;;7367733;19;20081;-63
2022/06/15 08:29:16;;;;;;;6.25;3.20;;;25.30;1.00;;;;;;7393408;19;20018;-64
2022/06/15 08:31:46;;;;;;;5.72;3.10;;;25.50;1.00;;;;;;7363517;19;21351;-61
2022/06/15 08:34:16;;;;;;;5.55;3.25;;;25.30;1.00;;;;;;7369364;19;20006;-62
2022/06/15 08:36:48;;;;;;;8.20;3.80;;;24.50;1.00;;;;;;7370039;19;20010;-63
2022/06/15 08:39:19;;;;;;;6.40;3.30;;;24.70;1.00;;;;;;7371868;19;20102;-63
2022/06/15 08:41:58;;;;;;;6.55;3.20;;;25.00;1.00;;;;;;7364318;19;21650;-64
2022/06/15 08:44:36;;;;;;;5.38;3.15;;;25.40;1.00;;;;;;7392238;19;20043;-63
2022/06/15 08:47:19;;;;;;;5.45;3.00;;;25.20;1.00;;;;;;7367575;19;20585;-64
2022/06/15 08:49:58;;;;;;;5.28;3.05;;;25.20;1.00;;;;;;7369954;19;20086;-62
2022/06/15 08:52:36;;;;;;;5.72;3.42;;;25.20;1.00;;;;;;7362283;19;20043;-62
2022/06/15 08:55:11;;;;;;;6.45;3.58;;;25.60;1.00;;;;;;7366574;19;20942;-62
2022/06/15 08:57:46;;;;;;;5.65;2.92;;;25.30;1.00;;;;;;7367311;19;20010;-61
2022/06/15 09:00:21;;;;;;;4.68;3.00;;;25.40;1.00;;;;;;7369089;19;20486;-63
2022/06/15 09:03:04;;;;;;;6.38;3.05;;;25.80;1.00;;;;;;7364406;19;20022;-63
2022/06/15 09:05:41;;;;;;;4.10;2.80;;;25.90;1.00;;;;;;7384946;19;20471;-63
2022/06/15 09:08:38;;;;;;;8.73;3.28;;;26.20;1.00;;;;;;7369748;19;20007;-62
2022/06/15 09:11:17;;;;;;;7.40;3.22;;;26.80;1.00;;;;;;7365452;19;20035;-63
2022/06/15 09:13:59;;;;;;;6.55;2.75;;;26.90;1.00;;;;;;7365668;19;20039;-64
2022/06/15 09:16:36;;;;;;;6.20;2.88;;;26.80;1.00;;;;;;7367267;19;20010;-63
2022/06/15 09:19:09;;;;;;;5.80;3.17;;;26.80;1.00;;;;;;7369503;19;20093;-63
2022/06/15 09:21:44;;;;;;;5.18;3.05;;;27.00;1.00;;;;;;7363268;19;20081;-63
2022/06/15 09:24:19;;;;;;;4.57;2.95;;;27.00;1.00;;;;;;7368501;19;20022;-63
2022/06/15 09:26:54;;;;;;;4.07;3.40;;;27.00;1.00;;;;;;7367583;19;20088;-63
2022/06/15 09:29:29;;;;;;;5.07;3.30;;;26.80;1.00;;;;;;7392434;19;20006;-63
2022/06/15 09:32:02;;;;;;;5.78;3.20;;;26.30;1.00;;;;;;7362181;19;20016;-63
2022/06/15 09:34:37;;;;;;;4.63;3.07;;;26.30;1.00;;;;;;7366876;19;20067;-63
2022/06/15 09:37:13;;;;;;;2.75;2.45;;;26.70;1.00;;;;;;7368072;19;20047;-62
2022/06/15 09:39:46;;;;;;;3.40;2.55;;;26.90;1.00;;;;;;7368076;19;20056;-62
2022/06/15 09:42:21;;;;;;;4.88;2.78;;;26.70;1.00;;;;;;7363304;19;20006;-62
2022/06/15 09:45:00;;;;;;;4.75;3.00;;;26.80;1.00;;;;;;7368015;19;20092;-63
2022/06/15 09:47:43;;;;;;;3.85;2.65;;;26.80;1.00;;;;;;7388049;19;20055;-63
2022/06/15 09:50:27;;;;;;;5.07;2.80;;;27.10;1.00;;;;;;7367226;19;20017;-63
2022/06/15 09:53:09;;;;;;;8.80;3.00;;;26.80;1.00;;;;;;7363049;19;20036;-63
2022/06/15 09:55:46;;;;;;;3.63;2.47;;;26.80;1.00;;;;;;7365818;19;20094;-63
2022/06/15 09:58:41;;;;;;;3.58;2.75;;;27.00;1.00;;;;;;7368310;19;20019;-63
2022/06/15 10:01:11;;;;;;;4.95;2.85;;;27.20;1.00;;;;;;7361464;19;20532;-63
2022/06/15 10:03:46;;;;;;;5.80;3.08;;;27.10;1.00;;;;;;7364342;19;20027;-63
2022/06/15 10:06:24;;;;;;;4.40;2.85;;;27.30;1.00;;;;;;7366705;19;20031;-63
2022/06/15 10:08:55;;;;;;;5.13;2.90;;;27.40;1.00;;;;;;7368164;19;20014;-63
2022/06/15 10:11:36;;;;;;;5.70;3.42;;;27.10;1.00;;;;;;7382861;19;20018;-62
2022/06/15 10:14:23;;;;;;;3.88;2.70;;;27.30;1.00;;;;;;7366237;19;20147;-63
2022/06/15 10:17:01;;;;;;;4.50;2.58;;;27.50;1.00;;;;;;7363128;19;20078;-63
2022/06/15 10:19:34;;;;;;;6.15;3.30;;;27.50;1.00;;;;;;7366642;19;20006;-62
2022/06/15 10:22:08;;;;;;;5.33;2.80;;;27.00;1.00;;;;;;7358889;19;20554;-62
2022/06/15 10:24:43;;;;;;;5.40;2.60;;;27.00;1.00;;;;;;7364409;19;20006;-63
2022/06/15 10:27:41;;;;;;;5.38;2.92;;;26.70;1.00;;;;;;7364443;19;20010;-63
2022/06/15 10:30:21;;;;;;;7.97;3.05;;;27.00;1.00;;;;;;7365490;19;20493;-62
2022/06/15 10:33:03;;;;;;;4.82;2.90;;;26.80;1.00;;;;;;7361199;19;20014;-63
2022/06/15 10:35:36;;;;;;;3.90;2.50;;;26.90;1.00;;;;;;7384401;19;20365;-63
2022/06/15 10:38:12;;;;;;;6.20;2.70;;;27.10;1.00;;;;;;7387001;19;20081;-63
2022/06/15 10:40:57;;;;;;;3.58;2.40;;;27.30;1.00;;;;;;7360725;19;20014;-63
2022/06/15 10:43:35;;;;;;;7.32;2.65;;;27.60;1.00;;;;;;7363307;19;20019;-63
2022/06/15 10:46:07;;;;;;;4.25;2.25;;;27.70;1.00;;;;;;7365085;19;20074;-64
2022/06/15 10:48:44;;;;;;;4.57;2.35;;;27.90;1.00;;;;;;7367838;19;20085;-63
2022/06/15 10:51:16;;;;;;;4.32;2.10;;;27.90;1.00;;;;;;7361863;19;20068;-63
2022/06/15 10:53:48;;;;;;;4.45;2.45;;;27.60;1.00;;;;;;7363570;19;20982;-63
2022/06/15 11:02:14;;;;;;;3.55;2.42;;;27.10;1.00;;;;;;7358381;19;20512;-63
2022/06/15 11:04:56;;;;;;;2.55;2.15;;;27.60;1.00;;;;;;7362797;19;20010;-62
2022/06/15 11:07:37;;;;;;;4.40;2.45;;;27.40;1.00;;;;;;7363969;19;20506;-63
2022/06/15 11:10:17;;;;;;;4.55;2.17;;;27.40;1.00;;;;;;7365266;19;20017;-63
2022/06/15 11:12:50;;;;;;;4.60;2.20;;;27.70;1.00;;;;;;7361622;19;20101;-63
2022/06/15 11:18:28;;;;;;;4.07;2.42;;;28.10;1.00;;;;;;7365732;19;20002;-63
2022/06/15 11:21:03;;;;;;;3.25;2.20;;;27.80;1.00;;;;;;7360293;19;20022;-63
2022/06/15 11:23:41;;;;;;;2.97;1.92;;;27.80;1.00;;;;;;7385042;19;20014;-63
2022/06/15 11:29:02;;;;;;;2.28;1.70;;;28.10;1.00;;;;;;7364955;19;20010;-64
2022/06/15 11:31:56;;;;;;;3.88;2.53;;;28.40;1.00;;;;;;7358223;19;20019;-64
2022/06/15 11:34:34;;;;;;;5.47;2.33;;;28.50;1.00;;;;;;7363860;19;20106;-63
2022/06/15 11:37:08;;;;;;;4.25;2.38;;;28.60;1.00;;;;;;7363532;19;20109;-63
2022/06/15 11:39:44;;;;;;;3.33;2.60;;;28.50;1.00;;;;;;7364829;19;20090;-63
2022/06/15 11:42:19;;;;;;;6.78;2.38;;;28.50;1.00;;;;;;7356842;19;20081;-63
2022/06/15 11:44:49;;;;;;;4.50;2.22;;;28.80;1.00;;;;;;7363673;19;20417;-63
2022/06/15 11:47:31;;;;;;;4.18;2.20;;;28.80;1.00;;;;;;7383207;19;20022;-63
2022/06/15 11:50:11;;;;;;;3.40;2.22;;;28.90;1.00;;;;;;7364099;19;20013;-63
2022/06/15 11:52:56;;;;;;;3.75;2.10;;;28.90;1.00;;;;;;7357384;19;20074;-63
2022/06/15 11:55:34;;;;;;;2.65;1.80;;;28.70;1.00;;;;;;7359756;19;20017;-62
2022/06/15 11:58:21;;;;;;;3.40;1.90;;;28.80;1.00;;;;;;7363704;19;20051;-62
2022/06/15 12:01:03;;;;;;;2.90;2.05;;;28.60;1.00;;;;;;7360951;19;20426;-63
2022/06/15 12:03:55;;;;;;;3.88;1.90;;;28.50;1.00;;;;;;7363498;19;20014;-63
2022/06/15 12:06:29;;;;;;;6.70;2.15;;;28.90;1.00;;;;;;7363750;19;20013;-63
2022/06/15 12:09:07;;;;;;;4.78;2.38;;;28.70;1.00;;;;;;7363345;19;20024;-64
2022/06/15 12:14:41;;;;;;;3.15;2.30;;;28.80;1.00;;;;;;7385448;19;20018;-63
2022/06/15 12:17:17;;;;;;;5.90;2.00;;;29.00;1.00;;;;;;7361782;19;20017;-63
2022/06/15 12:19:56;;;;;;;3.72;2.00;;;29.10;1.00;;;;;;7362836;19;20385;-63
2022/06/15 12:22:31;;;;;;;3.60;2.25;;;29.00;1.00;;;;;;7355385;19;20013;-62
2022/06/15 12:25:09;;;;;;;4.50;2.28;;;29.20;1.00;;;;;;7362815;19;20794;-63
2022/06/15 12:27:45;;;;;;;2.80;2.17;;;29.00;1.00;;;;;;7362056;19;20031;-63
2022/06/15 12:30:28;;;;;;;3.55;2.20;;;29.20;1.00;;;;;;7360294;19;20102;-64
2022/06/15 12:33:08;;;;;;;3.28;2.28;;;29.20;1.00;;;;;;7359110;19;20021;-63
2022/06/15 12:35:49;;;;;;;6.25;2.38;;;29.10;1.00;;;;;;7362940;19;20114;-63
2022/06/15 12:38:26;;;;;;;3.70;2.13;;;28.90;1.00;;;;;;7384447;19;20021;-63
2022/06/15 12:41:04;;;;;;;4.70;1.90;;;28.60;1.00;;;;;;7363062;19;20432;-64
2022/06/15 12:43:38;;;;;;;2.13;1.92;;;28.80;1.00;;;;;;7367059;19;20074;-64
2022/06/15 12:46:14;;;;;;;4.57;1.90;;;29.40;1.00;;;;;;7368758;19;20471;-63
2022/06/15 12:48:54;;;;;;;5.72;2.17;;;29.40;1.00;;;;;;7369307;19;20018;-64
2022/06/15 12:51:37;;;;;;;2.58;2.10;;;29.70;1.00;;;;;;7362230;19;20007;-64
2022/06/15 12:54:15;;;;;;;4.68;2.20;;;29.20;1.00;;;;;;7364742;19;20066;-63
2022/06/15 12:56:55;;;;;;;3.35;2.20;;;29.30;1.00;;;;;;7368373;19;20090;-62
2022/06/15 12:59:41;;;;;;;3.30;2.10;;;29.70;1.00;;;;;;7391670;19;20074;-63
2022/06/15 13:02:16;;;;;;;3.60;2.33;;;29.80;1.00;;;;;;7363507;19;20537;-63
2022/06/15 13:05:05;;;;;;;4.97;2.25;;;29.60;1.00;;;;;;7368458;19;20010;-63
2022/06/15 13:07:40;;;;;;;3.83;2.63;;;29.70;1.00;;;;;;7369506;19;20078;-64
2022/06/15 13:10:27;;;;;;;2.85;2.08;;;29.80;1.00;;;;;;7368562;19;20022;-63
2022/06/15 13:13:01;;;;;;;2.28;2.08;;;29.90;1.00;;;;;;7364138;19;20007;-62
2022/06/15 13:15:40;;;;;;;3.58;2.30;;;29.40;1.00;;;;;;7367274;19;20095;-63
2022/06/15 13:18:14;;;;;;;2.72;2.10;;;29.30;1.00;;;;;;7368821;19;20057;-63
2022/06/15 13:21:11;;;;;;;2.78;2.20;;;29.60;1.00;;;;;;7366444;19;20372;-63
2022/06/15 13:23:47;;;;;;;2.92;1.92;;;29.40;1.00;;;;;;7365313;19;20031;-63
2022/06/15 13:26:21;;;;;;;6.68;2.22;;;29.60;1.00;;;;;;7386923;19;20023;-63
2022/06/15 13:29:23;;;;;;;4.45;2.03;;;29.90;1.00;;;;;;7366473;19;20136;-62
2022/06/15 13:32:00;;;;;;;3.92;2.42;;;29.90;1.00;;;;;;7361265;19;20007;-63
2022/06/15 13:34:47;;;;;;;3.50;1.92;;;29.90;1.00;;;;;;7367230;19;20128;-63
2022/06/15 13:37:30;;;;;;;3.70;2.42;;;29.90;1.00;;;;;;7367989;19;20006;-63
2022/06/15 13:40:06;;;;;;;2.65;2.00;;;30.00;1.00;;;;;;7369856;19;20006;-63
2022/06/15 13:42:40;;;;;;;4.63;1.98;;;29.70;1.00;;;;;;7363057;19;20093;-63
2022/06/15 13:45:14;;;;;;;3.38;2.25;;;30.00;1.00;;;;;;7366956;19;20007;-64
2022/06/15 13:47:51;;;;;;;2.72;2.10;;;29.40;1.00;;;;;;7367214;19;20022;-63
2022/06/15 13:50:27;;;;;;;3.05;2.13;;;29.80;1.00;;;;;;7385652;19;20466;-64
2022/06/15 13:52:59;;;;;;;2.42;2.10;;;29.90;1.00;;;;;;7360949;19;20086;-63
2022/06/15 13:56:13;;;;;;;4.38;2.30;;;29.90;1.00;;;;;;7360469;19;20057;-63
2022/06/15 13:58:59;;;;;;;4.25;2.40;;;29.80;1.00;;;;;;7366212;19;20086;-62